Time;durP1;ratioP1;P1;durP2;ratioP2;P2;SDS_P1;SDS_P2;PMS_P1;PMS_P2;Temp;Humidity;BMP_temperature;BMP_pressure;BME280_temperature;BME280_humidity;BME280_pressure;Samples;Min_cycle;Max_cycle;Signal;HPM_P1;HPM_P2
2023/05/25 00:00:52;;;;;;;0.00;0.00;;;;;;;;;;5106018;28;20224;-77
2023/05/25 00:03:30;;;;;;;0.00;0.00;;;;;;;;;;5095048;28;20696;-77
2023/05/25 00:06:01;;;;;;;0.00;0.00;;;;;;;;;;5095746;28;20213;-77
2023/05/25 00:08:29;;;;;;;0.00;0.00;;;;;;;;;;5095269;28;20556;-77
2023/05/25 00:10:59;;;;;;;0.00;0.00;;;;;;;;;;5104376;28;20220;-77
2023/05/25 00:13:27;;;;;;;0.00;0.00;;;;;;;;;;5114924;28;20215;-77
2023/05/25 00:15:56;;;;;;;0.00;0.00;;;;;;;;;;5114740;28;20225;-77
2023/05/25 00:18:25;;;;;;;0.00;0.00;;;;;;;;;;5115463;28;20207;-77
2023/05/25 00:20:54;;;;;;;0.00;0.00;;;;;;;;;;5106329;28;20243;-77
2023/05/25 00:23:22;;;;;;;0.00;0.00;;;;;;;;;;5095206;28;20205;-76
2023/05/25 00:25:51;;;;;;;0.00;0.00;;;;;;;;;;5105525;28;20221;-77
2023/05/25 00:28:21;;;;;;;0.00;0.00;;;;;;;;;;5115124;28;20215;-77
2023/05/25 00:30:50;;;;;;;0.00;0.00;;;;;;;;;;5114264;28;20235;-77
2023/05/25 00:33:19;;;;;;;0.00;0.00;;;;;;;;;;5115274;28;20208;-76
2023/05/25 00:35:47;;;;;;;0.00;0.00;;;;;;;;;;5104936;27;20221;-76
2023/05/25 00:38:17;;;;;;;0.00;0.00;;;;;;;;;;5094707;28;20210;-76
2023/05/25 00:40:46;;;;;;;0.00;0.00;;;;;;;;;;5104279;28;20205;-76
2023/05/25 00:43:14;;;;;;;0.00;0.00;;;;;;;;;;5114736;28;20244;-76
2023/05/25 00:45:44;;;;;;;0.00;0.00;;;;;;;;;;5115190;28;20551;-76
2023/05/25 00:48:13;;;;;;;0.00;0.00;;;;;;;;;;5115561;28;20201;-76
2023/05/25 00:50:44;;;;;;;0.00;0.00;;;;;;;;;;5106743;28;20272;-77
2023/05/25 00:53:13;;;;;;;0.00;0.00;;;;;;;;;;5094631;28;20205;-77
2023/05/25 00:55:44;;;;;;;0.00;0.00;;;;;;;;;;5101209;28;20744;-77
2023/05/25 00:58:14;;;;;;;0.00;0.00;;;;;;;;;;5114142;28;20197;-76
2023/05/25 01:00:43;;;;;;;0.00;0.00;;;;;;;;;;5099725;28;20673;-77
2023/05/25 01:03:16;;;;;;;0.00;0.00;;;;;;;;;;5112208;28;20208;-77
2023/05/25 01:05:46;;;;;;;0.00;0.00;;;;;;;;;;5095779;28;20229;-77
2023/05/25 01:08:17;;;;;;;0.00;0.00;;;;;;;;;;5094311;28;20954;-77
2023/05/25 01:10:47;;;;;;;0.00;0.00;;;;;;;;;;5093683;28;20225;-77
2023/05/25 01:13:15;;;;;;;0.00;0.00;;;;;;;;;;5094393;28;20205;-77
2023/05/25 01:15:44;;;;;;;0.00;0.00;;;;;;;;;;5094132;28;20226;-77
2023/05/25 01:18:15;;;;;;;0.00;0.00;;;;;;;;;;5095023;28;20658;-76
2023/05/25 01:20:53;;;;;;;0.00;0.00;;;;;;;;;;5114926;28;20196;-77
2023/05/25 01:23:23;;;;;;;0.00;0.00;;;;;;;;;;5094369;28;20278;-76
2023/05/25 01:25:56;;;;;;;0.00;0.00;;;;;;;;;;5093743;28;20225;-77
2023/05/25 01:28:26;;;;;;;0.00;0.00;;;;;;;;;;5094470;28;20249;-77
2023/05/25 01:30:56;;;;;;;0.00;0.00;;;;;;;;;;5093707;28;20205;-77
2023/05/25 01:33:25;;;;;;;0.00;0.00;;;;;;;;;;5093857;28;20182;-77
2023/05/25 01:35:55;;;;;;;0.00;0.00;;;;;;;;;;5094279;28;20248;-76
2023/05/25 01:38:23;;;;;;;0.10;0.10;;;;;;;;;;5107709;28;20572;-76
2023/05/25 01:40:52;;;;;;;0.00;0.00;;;;;;;;;;5114075;28;20212;-77
2023/05/25 01:43:20;;;;;;;0.00;0.00;;;;;;;;;;5112835;28;20650;-77
2023/05/25 01:45:49;;;;;;;0.00;0.00;;;;;;;;;;5114174;28;20216;-77
2023/05/25 01:48:24;;;;;;;0.00;0.00;;;;;;;;;;5098045;28;20569;-77
2023/05/25 01:50:55;;;;;;;0.00;0.00;;;;;;;;;;5094664;28;20197;-77
2023/05/25 01:53:27;;;;;;;0.00;0.00;;;;;;;;;;5093839;28;20198;-77
2023/05/25 01:55:57;;;;;;;0.00;0.00;;;;;;;;;;5106763;28;20681;-76
2023/05/25 01:58:27;;;;;;;0.00;0.00;;;;;;;;;;5114734;28;20205;-76
2023/05/25 02:00:56;;;;;;;0.00;0.00;;;;;;;;;;5106394;28;20201;-77
2023/05/25 02:03:25;;;;;;;0.00;0.00;;;;;;;;;;5093844;28;20292;-77
2023/05/25 02:05:56;;;;;;;0.00;0.00;;;;;;;;;;5093591;28;20202;-77
2023/05/25 02:08:26;;;;;;;0.00;0.00;;;;;;;;;;5093553;28;20568;-77
2023/05/25 02:10:54;;;;;;;0.00;0.00;;;;;;;;;;5104077;28;20201;-77
2023/05/25 02:13:23;;;;;;;0.00;0.00;;;;;;;;;;5114433;28;20532;-77
2023/05/25 02:15:51;;;;;;;0.00;0.00;;;;;;;;;;5113346;28;20225;-77
2023/05/25 02:18:21;;;;;;;0.00;0.00;;;;;;;;;;5113902;28;20757;-77
2023/05/25 02:20:50;;;;;;;0.00;0.00;;;;;;;;;;5099922;28;20548;-77
2023/05/25 02:23:19;;;;;;;0.00;0.00;;;;;;;;;;5095785;28;20666;-77
2023/05/25 02:25:50;;;;;;;0.00;0.00;;;;;;;;;;5097158;28;20291;-77
2023/05/25 02:28:19;;;;;;;0.00;0.00;;;;;;;;;;5097987;28;20235;-77
2023/05/25 02:30:47;;;;;;;0.00;0.00;;;;;;;;;;5110070;28;20197;-77
2023/05/25 02:33:15;;;;;;;0.00;0.00;;;;;;;;;;5117527;28;20576;-77
2023/05/25 02:35:44;;;;;;;0.00;0.00;;;;;;;;;;5104884;28;20222;-76
2023/05/25 02:38:13;;;;;;;0.00;0.00;;;;;;;;;;5096531;28;20693;-76
2023/05/25 02:40:41;;;;;;;0.00;0.00;;;;;;;;;;5097362;28;20214;-77
2023/05/25 02:43:11;;;;;;;0.00;0.00;;;;;;;;;;5102545;28;20201;-77
2023/05/25 02:45:40;;;;;;;0.00;0.00;;;;;;;;;;5117700;28;20256;-77
2023/05/25 02:48:08;;;;;;;0.00;0.00;;;;;;;;;;5117338;28;20221;-77
2023/05/25 02:50:37;;;;;;;0.00;0.00;;;;;;;;;;5109482;28;20209;-77
2023/05/25 02:53:05;;;;;;;0.00;0.00;;;;;;;;;;5100415;28;20197;-77
2023/05/25 02:55:33;;;;;;;0.00;0.00;;;;;;;;;;5116998;28;20224;-77
2023/05/25 02:58:02;;;;;;;0.00;0.00;;;;;;;;;;5098414;28;20202;-76
2023/05/25 03:00:32;;;;;;;0.00;0.00;;;;;;;;;;5107659;28;20244;-77
2023/05/25 03:03:00;;;;;;;0.00;0.00;;;;;;;;;;5097195;28;20206;-76
2023/05/25 03:05:29;;;;;;;0.00;0.00;;;;;;;;;;5096681;28;20221;-76
2023/05/25 03:07:57;;;;;;;0.00;0.00;;;;;;;;;;5096411;28;20205;-77
2023/05/25 03:10:26;;;;;;;0.00;0.00;;;;;;;;;;5096604;28;20198;-77
2023/05/25 03:12:54;;;;;;;0.00;0.00;;;;;;;;;;5096299;28;20563;-76
2023/05/25 03:15:30;;;;;;;0.00;0.00;;;;;;;;;;5096138;28;20710;-76
2023/05/25 03:18:00;;;;;;;0.00;0.00;;;;;;;;;;5096059;28;20196;-76
2023/05/25 03:20:29;;;;;;;0.00;0.00;;;;;;;;;;5096574;28;20189;-76
2023/05/25 03:22:57;;;;;;;0.00;0.00;;;;;;;;;;5095286;28;20289;-76
2023/05/25 03:25:26;;;;;;;0.00;0.00;;;;;;;;;;5095713;28;20217;-77
2023/05/25 03:27:55;;;;;;;0.00;0.00;;;;;;;;;;5094949;28;20202;-76
2023/05/25 03:30:23;;;;;;;0.00;0.00;;;;;;;;;;5095011;28;20202;-76
2023/05/25 03:32:52;;;;;;;0.00;0.00;;;;;;;;;;5095520;28;20598;-77
2023/05/25 03:35:22;;;;;;;0.00;0.00;;;;;;;;;;5094652;28;20662;-77
2023/05/25 03:37:51;;;;;;;0.00;0.00;;;;;;;;;;5095052;28;20236;-77
2023/05/25 03:40:20;;;;;;;0.00;0.00;;;;;;;;;;5094940;28;20202;-76
2023/05/25 03:42:48;;;;;;;0.00;0.00;;;;;;;;;;5094861;28;20237;-77
2023/05/25 03:45:16;;;;;;;0.00;0.00;;;;;;;;;;5095228;28;20224;-77
2023/05/25 03:47:45;;;;;;;0.00;0.00;;;;;;;;;;5095341;28;20201;-76
2023/05/25 03:50:13;;;;;;;0.00;0.00;;;;;;;;;;5095117;28;20563;-76
2023/05/25 03:52:43;;;;;;;0.00;0.00;;;;;;;;;;5094994;28;20220;-76
2023/05/25 03:55:13;;;;;;;0.00;0.00;;;;;;;;;;5114364;28;20225;-76
2023/05/25 03:57:42;;;;;;;0.00;0.00;;;;;;;;;;5115379;27;20301;-76
2023/05/25 04:00:11;;;;;;;0.00;0.00;;;;;;;;;;5098394;28;20209;-76
2023/05/25 04:02:39;;;;;;;0.00;0.00;;;;;;;;;;5095800;28;20213;-77
2023/05/25 04:05:08;;;;;;;0.00;0.00;;;;;;;;;;5111371;28;20643;-76
2023/05/25 04:07:37;;;;;;;0.00;0.00;;;;;;;;;;5115303;28;20650;-76
2023/05/25 04:10:07;;;;;;;0.00;0.00;;;;;;;;;;5099064;28;20198;-76
2023/05/25 04:12:36;;;;;;;0.00;0.00;;;;;;;;;;5094414;28;20244;-76
2023/05/25 04:15:07;;;;;;;0.00;0.00;;;;;;;;;;5103002;28;20217;-76
2023/05/25 04:17:36;;;;;;;0.00;0.00;;;;;;;;;;5095146;28;20209;-76
2023/05/25 04:20:08;;;;;;;0.00;0.00;;;;;;;;;;5094562;28;20206;-76
2023/05/25 04:22:37;;;;;;;0.00;0.00;;;;;;;;;;5094567;28;20217;-76
2023/05/25 04:25:09;;;;;;;0.00;0.00;;;;;;;;;;5100249;28;20308;-76
2023/05/25 04:27:37;;;;;;;0.00;0.00;;;;;;;;;;5094078;28;20205;-77
2023/05/25 04:30:07;;;;;;;0.00;0.00;;;;;;;;;;5093809;28;20208;-76
2023/05/25 04:32:36;;;;;;;0.00;0.00;;;;;;;;;;5093609;28;20213;-77
2023/05/25 04:35:05;;;;;;;0.00;0.00;;;;;;;;;;5094206;28;20308;-76
2023/05/25 04:37:35;;;;;;;0.00;0.00;;;;;;;;;;5093736;28;20226;-76
2023/05/25 04:40:09;;;;;;;0.00;0.00;;;;;;;;;;5093900;28;20247;-76
2023/05/25 04:42:39;;;;;;;0.00;0.00;;;;;;;;;;5093682;28;20263;-77
2023/05/25 04:45:09;;;;;;;0.00;0.00;;;;;;;;;;5093666;28;20222;-76
2023/05/25 04:47:39;;;;;;;0.00;0.00;;;;;;;;;;5093721;28;20212;-77
2023/05/25 04:50:09;;;;;;;0.00;0.00;;;;;;;;;;5094347;28;20273;-77
2023/05/25 04:52:37;;;;;;;0.00;0.00;;;;;;;;;;5093416;28;20714;-77
2023/05/25 04:55:06;;;;;;;0.00;0.00;;;;;;;;;;5093905;28;20221;-76
2023/05/25 04:57:35;;;;;;;0.00;0.00;;;;;;;;;;5093852;28;20218;-76
2023/05/25 05:00:06;;;;;;;0.00;0.00;;;;;;;;;;5094247;28;20210;-76
2023/05/25 05:02:35;;;;;;;0.00;0.00;;;;;;;;;;5093677;28;20193;-77
2023/05/25 05:05:03;;;;;;;0.00;0.00;;;;;;;;;;5093517;28;20279;-77
2023/05/25 05:07:32;;;;;;;0.00;0.00;;;;;;;;;;5093936;28;20315;-76
2023/05/25 05:10:00;;;;;;;0.00;0.00;;;;;;;;;;5094039;28;20205;-77
2023/05/25 05:12:29;;;;;;;0.00;0.00;;;;;;;;;;5099711;28;20198;-77
2023/05/25 05:14:57;;;;;;;0.00;0.00;;;;;;;;;;5093738;28;20228;-77
2023/05/25 05:17:29;;;;;;;0.00;0.00;;;;;;;;;;5094375;28;20229;-76
2023/05/25 05:19:58;;;;;;;0.00;0.00;;;;;;;;;;5111285;28;20284;-77
2023/05/25 05:22:26;;;;;;;0.00;0.00;;;;;;;;;;5114141;28;20231;-76
2023/05/25 05:24:55;;;;;;;0.00;0.00;;;;;;;;;;5115381;28;20634;-77
2023/05/25 05:27:25;;;;;;;0.00;0.00;;;;;;;;;;5114620;28;20212;-77
2023/05/25 05:29:53;;;;;;;0.00;0.00;;;;;;;;;;5115121;28;20525;-76
2023/05/25 05:32:21;;;;;;;0.00;0.00;;;;;;;;;;5113612;28;20208;-76
2023/05/25 05:34:51;;;;;;;0.00;0.00;;;;;;;;;;5114722;28;20213;-77
2023/05/25 05:37:20;;;;;;;0.00;0.00;;;;;;;;;;5114720;28;20776;-76
2023/05/25 05:39:51;;;;;;;0.00;0.00;;;;;;;;;;5114614;28;20201;-76
2023/05/25 05:42:19;;;;;;;0.00;0.00;;;;;;;;;;5114283;28;20192;-77
2023/05/25 05:44:48;;;;;;;0.00;0.00;;;;;;;;;;5114606;28;20302;-77
2023/05/25 05:47:16;;;;;;;0.00;0.00;;;;;;;;;;5114535;28;20197;-77
2023/05/25 05:49:46;;;;;;;0.00;0.00;;;;;;;;;;5115210;28;20197;-76
2023/05/25 05:52:16;;;;;;;0.00;0.00;;;;;;;;;;5115152;28;20224;-76
2023/05/25 05:54:44;;;;;;;0.00;0.00;;;;;;;;;;5114729;28;20221;-76
2023/05/25 05:57:13;;;;;;;0.03;0.03;;;;;;;;;;5115372;28;20216;-76
2023/05/25 05:59:42;;;;;;;0.00;0.00;;;;;;;;;;5118630;28;20253;-76
2023/05/25 06:02:11;;;;;;;0.00;0.00;;;;;;;;;;5118935;28;20625;-77
2023/05/25 06:04:39;;;;;;;0.00;0.00;;;;;;;;;;5118920;28;20233;-76
2023/05/25 06:07:08;;;;;;;0.00;0.00;;;;;;;;;;5118029;28;20193;-77
2023/05/25 06:09:38;;;;;;;0.00;0.00;;;;;;;;;;5119099;28;20212;-76
2023/05/25 06:12:07;;;;;;;0.00;0.00;;;;;;;;;;5118425;28;20209;-77
2023/05/25 06:14:36;;;;;;;0.00;0.00;;;;;;;;;;5118249;28;20221;-77
2023/05/25 06:17:05;;;;;;;0.00;0.00;;;;;;;;;;5118823;28;20201;-77
2023/05/25 06:19:33;;;;;;;0.00;0.00;;;;;;;;;;5118383;28;20208;-77
2023/05/25 06:22:02;;;;;;;0.00;0.00;;;;;;;;;;5118235;28;20642;-77
2023/05/25 06:24:30;;;;;;;0.00;0.00;;;;;;;;;;5118178;28;20314;-77
2023/05/25 06:27:02;;;;;;;0.00;0.00;;;;;;;;;;5118294;27;20212;-76
2023/05/25 06:29:30;;;;;;;0.00;0.00;;;;;;;;;;5117558;28;20193;-76
2023/05/25 06:31:59;;;;;;;0.00;0.00;;;;;;;;;;5117991;28;20201;-76
2023/05/25 06:34:27;;;;;;;0.00;0.00;;;;;;;;;;5117538;28;20229;-77
2023/05/25 06:36:56;;;;;;;0.00;0.00;;;;;;;;;;5117626;27;20236;-77
2023/05/25 06:39:24;;;;;;;0.00;0.00;;;;;;;;;;5117874;28;20714;-77
2023/05/25 06:41:53;;;;;;;0.00;0.00;;;;;;;;;;5117951;28;20201;-77
2023/05/25 06:44:23;;;;;;;0.00;0.00;;;;;;;;;;5117939;28;20298;-76
2023/05/25 06:46:51;;;;;;;0.00;0.00;;;;;;;;;;5118548;28;20553;-77
2023/05/25 06:49:20;;;;;;;0.00;0.00;;;;;;;;;;5117972;28;20203;-77
2023/05/25 06:51:49;;;;;;;0.00;0.00;;;;;;;;;;5117773;28;20201;-77
2023/05/25 06:54:18;;;;;;;0.00;0.00;;;;;;;;;;5118170;28;20705;-77
2023/05/25 06:56:47;;;;;;;0.00;0.00;;;;;;;;;;5117929;28;20204;-77
2023/05/25 06:59:17;;;;;;;0.00;0.00;;;;;;;;;;5118317;28;20259;-77
2023/05/25 07:01:47;;;;;;;0.00;0.00;;;;;;;;;;5118164;28;20369;-76
2023/05/25 07:04:16;;;;;;;0.00;0.00;;;;;;;;;;5117209;28;20224;-76
2023/05/25 07:06:47;;;;;;;0.00;0.00;;;;;;;;;;5117318;28;20223;-76
2023/05/25 07:09:16;;;;;;;0.00;0.00;;;;;;;;;;5117055;28;20209;-77
2023/05/25 07:11:44;;;;;;;0.00;0.00;;;;;;;;;;5117027;27;20205;-77
2023/05/25 07:14:13;;;;;;;0.00;0.00;;;;;;;;;;5117115;28;20275;-77
2023/05/25 07:16:41;;;;;;;0.00;0.00;;;;;;;;;;5117417;28;20205;-77
2023/05/25 07:19:11;;;;;;;0.00;0.00;;;;;;;;;;5116976;28;20217;-76
2023/05/25 07:21:39;;;;;;;0.00;0.00;;;;;;;;;;5116721;28;20291;-77
2023/05/25 07:24:08;;;;;;;0.00;0.00;;;;;;;;;;5115847;28;20225;-77
2023/05/25 07:26:37;;;;;;;0.00;0.00;;;;;;;;;;5116504;28;20197;-77
2023/05/25 07:29:05;;;;;;;0.00;0.00;;;;;;;;;;5116168;28;20676;-77
2023/05/25 07:31:34;;;;;;;0.00;0.00;;;;;;;;;;5116416;28;20208;-77
2023/05/25 07:34:02;;;;;;;0.00;0.00;;;;;;;;;;5116139;28;20225;-77
2023/05/25 07:36:32;;;;;;;0.00;0.00;;;;;;;;;;5115590;28;20216;-77
2023/05/25 07:39:01;;;;;;;0.00;0.00;;;;;;;;;;5116212;28;20232;-77
2023/05/25 07:41:29;;;;;;;0.00;0.00;;;;;;;;;;5116054;28;20209;-76
2023/05/25 07:43:58;;;;;;;0.00;0.00;;;;;;;;;;5115724;28;20228;-77
2023/05/25 07:46:27;;;;;;;0.00;0.00;;;;;;;;;;5116196;28;20197;-77
2023/05/25 07:48:58;;;;;;;0.00;0.00;;;;;;;;;;5115776;28;20197;-77
2023/05/25 07:51:28;;;;;;;0.00;0.00;;;;;;;;;;5115678;28;20236;-77
2023/05/25 07:53:58;;;;;;;0.00;0.00;;;;;;;;;;5115828;28;20224;-76
2023/05/25 07:56:27;;;;;;;0.00;0.00;;;;;;;;;;5115707;28;20573;-76
2023/05/25 07:58:56;;;;;;;0.00;0.00;;;;;;;;;;5115282;27;20352;-77
2023/05/25 08:01:25;;;;;;;0.00;0.00;;;;;;;;;;5115592;28;20625;-77
2023/05/25 08:03:54;;;;;;;0.00;0.00;;;;;;;;;;5115236;28;20231;-77
2023/05/25 08:06:23;;;;;;;0.00;0.00;;;;;;;;;;5115633;28;20703;-77
2023/05/25 08:08:51;;;;;;;0.00;0.00;;;;;;;;;;5115315;28;20232;-77
2023/05/25 08:11:25;;;;;;;0.00;0.00;;;;;;;;;;5115376;28;20628;-77
2023/05/25 08:13:53;;;;;;;0.00;0.00;;;;;;;;;;5115496;28;20224;-77
2023/05/25 08:16:22;;;;;;;0.00;0.00;;;;;;;;;;5114873;28;20236;-77
2023/05/25 08:18:51;;;;;;;0.00;0.00;;;;;;;;;;5114667;28;20221;-76
2023/05/25 08:21:19;;;;;;;0.00;0.00;;;;;;;;;;5114637;28;20201;-77
2023/05/25 08:23:49;;;;;;;0.00;0.00;;;;;;;;;;5115230;28;20212;-76
2023/05/25 08:26:18;;;;;;;0.00;0.00;;;;;;;;;;5115166;28;20211;-77
2023/05/25 08:29:08;;;;;;;0.00;0.00;;;;;;;;;;5114794;28;20193;-77
2023/05/25 08:31:36;;;;;;;0.00;0.00;;;;;;;;;;5114796;28;20205;-76
2023/05/25 08:34:05;;;;;;;0.00;0.00;;;;;;;;;;5114963;28;20229;-77
2023/05/25 08:36:34;;;;;;;0.00;0.00;;;;;;;;;;5115094;28;20209;-78
2023/05/25 08:39:03;;;;;;;0.00;0.00;;;;;;;;;;5114683;28;20227;-77
2023/05/25 08:41:32;;;;;;;0.00;0.00;;;;;;;;;;5114726;28;20250;-77
2023/05/25 08:44:05;;;;;;;0.00;0.00;;;;;;;;;;5115174;28;20225;-77
2023/05/25 08:46:35;;;;;;;0.00;0.00;;;;;;;;;;5115549;28;20191;-77
2023/05/25 08:49:05;;;;;;;0.00;0.00;;;;;;;;;;5115088;28;20197;-77
2023/05/25 08:51:36;;;;;;;0.00;0.00;;;;;;;;;;5114754;28;20193;-77
2023/05/25 08:54:10;;;;;;;0.00;0.00;;;;;;;;;;5114921;28;20247;-77
2023/05/25 08:56:42;;;;;;;0.00;0.00;;;;;;;;;;5114672;28;20196;-77
2023/05/25 08:59:15;;;;;;;0.00;0.00;;;;;;;;;;5115136;28;20658;-77
2023/05/25 09:01:47;;;;;;;0.00;0.00;;;;;;;;;;5114082;28;20191;-77
2023/05/25 09:04:18;;;;;;;0.00;0.00;;;;;;;;;;5114631;28;20594;-77
2023/05/25 09:06:47;;;;;;;0.00;0.00;;;;;;;;;;5114627;28;20186;-77
2023/05/25 09:09:29;;;;;;;0.00;0.00;;;;;;;;;;5115075;28;20568;-77
2023/05/25 09:11:58;;;;;;;0.00;0.00;;;;;;;;;;5115386;28;20673;-77
2023/05/25 09:14:28;;;;;;;0.00;0.00;;;;;;;;;;5114295;28;20583;-77
2023/05/25 09:16:58;;;;;;;0.00;0.00;;;;;;;;;;5114547;28;20228;-77
2023/05/25 09:19:27;;;;;;;0.00;0.00;;;;;;;;;;5113875;28;20215;-77
2023/05/25 09:21:55;;;;;;;0.00;0.00;;;;;;;;;;5113700;28;20207;-77
2023/05/25 09:24:43;;;;;;;0.00;0.00;;;;;;;;;;5114936;28;20221;-77
2023/05/25 09:27:12;;;;;;;0.00;0.00;;;;;;;;;;5114772;28;20231;-77
2023/05/25 09:29:41;;;;;;;0.00;0.00;;;;;;;;;;5114672;28;20197;-76
2023/05/25 09:32:11;;;;;;;0.00;0.00;;;;;;;;;;5114281;28;20779;-76
2023/05/25 09:34:40;;;;;;;0.00;0.00;;;;;;;;;;5118755;28;20271;-76
2023/05/25 09:37:12;;;;;;;0.00;0.00;;;;;;;;;;5118490;28;20208;-76
2023/05/25 09:39:41;;;;;;;0.00;0.00;;;;;;;;;;5118509;28;20598;-77
2023/05/25 09:42:09;;;;;;;0.00;0.00;;;;;;;;;;5118636;28;20549;-77
2023/05/25 09:44:38;;;;;;;0.00;0.00;;;;;;;;;;5118883;28;20712;-77
2023/05/25 09:47:07;;;;;;;0.00;0.00;;;;;;;;;;5118662;28;20204;-77
2023/05/25 09:49:37;;;;;;;0.00;0.00;;;;;;;;;;5118750;28;20201;-77
2023/05/25 09:52:06;;;;;;;0.00;0.00;;;;;;;;;;5118254;28;20621;-77
2023/05/25 09:54:37;;;;;;;0.00;0.00;;;;;;;;;;5118566;27;20221;-77
2023/05/25 09:57:06;;;;;;;0.00;0.00;;;;;;;;;;5118835;28;20662;-77
2023/05/25 09:59:35;;;;;;;0.00;0.00;;;;;;;;;;5118265;28;20212;-77
2023/05/25 10:02:03;;;;;;;0.00;0.00;;;;;;;;;;5118162;28;20215;-76
2023/05/25 10:04:32;;;;;;;0.00;0.00;;;;;;;;;;5118370;28;20677;-76
2023/05/25 10:07:02;;;;;;;0.00;0.00;;;;;;;;;;5118486;28;20280;-77
2023/05/25 10:09:30;;;;;;;0.00;0.00;;;;;;;;;;5118470;28;20208;-77
2023/05/25 10:12:00;;;;;;;0.00;0.00;;;;;;;;;;5118224;28;20204;-77
2023/05/25 10:14:29;;;;;;;0.00;0.00;;;;;;;;;;5117978;28;20225;-77
2023/05/25 10:16:59;;;;;;;0.00;0.00;;;;;;;;;;5118007;28;20208;-76
2023/05/25 10:19:30;;;;;;;0.00;0.00;;;;;;;;;;5117914;28;20616;-76
2023/05/25 10:22:04;;;;;;;0.00;0.00;;;;;;;;;;5117349;28;20200;-76
2023/05/25 10:24:35;;;;;;;0.00;0.00;;;;;;;;;;5117937;28;20235;-77
2023/05/25 10:27:04;;;;;;;0.00;0.00;;;;;;;;;;5118305;28;20220;-77
2023/05/25 10:29:53;;;;;;;0.00;0.00;;;;;;;;;;5117707;28;20197;-77
2023/05/25 10:32:21;;;;;;;0.00;0.00;;;;;;;;;;5118107;28;20197;-76
2023/05/25 10:34:51;;;;;;;0.00;0.00;;;;;;;;;;5117840;28;20221;-77
2023/05/25 10:37:20;;;;;;;0.00;0.00;;;;;;;;;;5117688;28;20213;-77
2023/05/25 10:39:50;;;;;;;0.00;0.00;;;;;;;;;;5117167;28;20225;-77
2023/05/25 10:42:19;;;;;;;0.00;0.00;;;;;;;;;;5117379;28;20193;-77
2023/05/25 10:44:47;;;;;;;0.00;0.00;;;;;;;;;;5116744;28;20599;-77
2023/05/25 10:47:16;;;;;;;0.00;0.00;;;;;;;;;;5117530;28;20226;-77
2023/05/25 10:49:56;;;;;;;0.00;0.00;;;;;;;;;;5117474;28;20212;-76
2023/05/25 10:52:28;;;;;;;0.00;0.00;;;;;;;;;;5116850;28;20231;-76
2023/05/25 10:55:00;;;;;;;0.00;0.00;;;;;;;;;;5117431;28;20225;-77
2023/05/25 10:57:29;;;;;;;0.00;0.00;;;;;;;;;;5117316;28;20530;-77
2023/05/25 11:00:04;;;;;;;0.00;0.00;;;;;;;;;;5117057;28;20208;-77
2023/05/25 11:02:49;;;;;;;0.00;0.00;;;;;;;;;;5116915;28;20296;-77
2023/05/25 11:05:34;;;;;;;0.00;0.00;;;;;;;;;;5116278;28;20221;-77
2023/05/25 11:08:03;;;;;;;0.00;0.00;;;;;;;;;;5116704;28;20200;-76
2023/05/25 11:10:55;;;;;;;0.00;0.00;;;;;;;;;;5116012;28;20181;-76
2023/05/25 11:13:24;;;;;;;0.00;0.00;;;;;;;;;;5116711;28;20205;-77
2023/05/25 11:16:08;;;;;;;0.00;0.00;;;;;;;;;;5116245;28;20225;-76
2023/05/25 11:18:42;;;;;;;0.00;0.00;;;;;;;;;;5116131;28;20231;-76
2023/05/25 11:21:14;;;;;;;0.00;0.00;;;;;;;;;;5116290;28;20212;-77
2023/05/25 11:23:58;;;;;;;0.00;0.00;;;;;;;;;;5116443;28;20211;-77
2023/05/25 11:26:29;;;;;;;0.00;0.00;;;;;;;;;;5116749;28;20235;-76
2023/05/25 11:28:58;;;;;;;0.00;0.00;;;;;;;;;;5117207;28;20182;-77
2023/05/25 11:31:31;;;;;;;0.00;0.00;;;;;;;;;;5116572;28;20201;-78
2023/05/25 11:34:06;;;;;;;0.00;0.00;;;;;;;;;;5116681;27;20668;-77
2023/05/25 11:36:36;;;;;;;0.00;0.00;;;;;;;;;;5116716;28;20209;-77
2023/05/25 11:39:05;;;;;;;0.00;0.00;;;;;;;;;;5117042;28;20547;-77
2023/05/25 11:41:53;;;;;;;0.00;0.00;;;;;;;;;;5116437;28;20256;-78
2023/05/25 11:44:29;;;;;;;0.00;0.00;;;;;;;;;;5116486;28;20308;-77
2023/05/25 11:47:00;;;;;;;0.00;0.00;;;;;;;;;;5116347;28;20292;-77
2023/05/25 11:49:29;;;;;;;0.00;0.00;;;;;;;;;;5116169;28;20205;-77
2023/05/25 11:51:58;;;;;;;0.00;0.00;;;;;;;;;;5116536;28;20189;-77
2023/05/25 11:54:27;;;;;;;0.00;0.00;;;;;;;;;;5115553;28;20227;-77
2023/05/25 11:56:58;;;;;;;0.00;0.00;;;;;;;;;;5115432;28;20282;-77
2023/05/25 11:59:28;;;;;;;0.00;0.00;;;;;;;;;;5115985;28;20272;-77
2023/05/25 12:02:00;;;;;;;0.00;0.00;;;;;;;;;;5116306;28;20730;-77
2023/05/25 12:04:28;;;;;;;0.00;0.00;;;;;;;;;;5115964;28;20228;-77
2023/05/25 12:07:03;;;;;;;0.00;0.00;;;;;;;;;;5116203;28;20618;-77
2023/05/25 12:09:32;;;;;;;0.00;0.00;;;;;;;;;;5115940;28;20207;-77
2023/05/25 12:12:03;;;;;;;0.00;0.00;;;;;;;;;;5115886;28;20232;-77
2023/05/25 12:14:34;;;;;;;0.00;0.00;;;;;;;;;;5115812;28;20221;-77
2023/05/25 12:17:03;;;;;;;0.00;0.00;;;;;;;;;;5116222;28;20211;-79
2023/05/25 12:19:32;;;;;;;0.00;0.00;;;;;;;;;;5115767;28;20571;-77
2023/05/25 12:22:01;;;;;;;0.00;0.00;;;;;;;;;;5115618;28;20576;-77
2023/05/25 12:24:30;;;;;;;0.00;0.00;;;;;;;;;;5115340;28;20700;-77
2023/05/25 12:27:00;;;;;;;0.00;0.00;;;;;;;;;;5115598;28;20212;-77
2023/05/25 12:29:30;;;;;;;0.00;0.00;;;;;;;;;;5115599;28;20638;-78
2023/05/25 12:32:03;;;;;;;0.00;0.00;;;;;;;;;;5115972;28;20700;-77
2023/05/25 12:34:31;;;;;;;0.00;0.00;;;;;;;;;;5116033;27;20697;-77
2023/05/25 12:37:00;;;;;;;0.00;0.00;;;;;;;;;;5115213;28;20208;-77
2023/05/25 12:39:37;;;;;;;0.00;0.00;;;;;;;;;;5114929;28;20303;-78
2023/05/25 12:42:13;;;;;;;0.00;0.00;;;;;;;;;;5115135;28;20224;-77
2023/05/25 12:44:45;;;;;;;0.00;0.00;;;;;;;;;;5115459;28;20217;-77
2023/05/25 12:47:15;;;;;;;0.00;0.00;;;;;;;;;;5115957;28;20645;-78
2023/05/25 12:49:45;;;;;;;0.00;0.00;;;;;;;;;;5114952;28;20234;-78
2023/05/25 12:52:33;;;;;;;0.00;0.00;;;;;;;;;;5115313;28;20207;-77
2023/05/25 12:55:16;;;;;;;0.00;0.00;;;;;;;;;;5115294;27;20307;-77
2023/05/25 12:57:45;;;;;;;0.00;0.00;;;;;;;;;;5115529;28;20606;-78
2023/05/25 13:00:16;;;;;;;0.00;0.00;;;;;;;;;;5115222;28;20277;-77
2023/05/25 13:02:46;;;;;;;0.00;0.00;;;;;;;;;;5114407;28;20248;-78
2023/05/25 13:05:18;;;;;;;0.00;0.00;;;;;;;;;;5115002;28;20228;-77
2023/05/25 13:07:47;;;;;;;0.00;0.00;;;;;;;;;;5115187;28;20250;-78
2023/05/25 13:10:16;;;;;;;0.00;0.00;;;;;;;;;;5114558;28;20566;-77
2023/05/25 13:12:45;;;;;;;0.00;0.00;;;;;;;;;;5115186;28;20193;-78
2023/05/25 13:15:16;;;;;;;0.00;0.00;;;;;;;;;;5114467;28;20224;-77
2023/05/25 13:17:45;;;;;;;0.00;0.00;;;;;;;;;;5114029;27;20205;-78
2023/05/25 13:20:13;;;;;;;0.00;0.00;;;;;;;;;;5115311;28;20219;-78
2023/05/25 13:22:43;;;;;;;0.00;0.00;;;;;;;;;;5114680;28;20597;-77
2023/05/25 13:25:13;;;;;;;0.00;0.00;;;;;;;;;;5114970;28;20720;-77
2023/05/25 13:27:44;;;;;;;0.00;0.00;;;;;;;;;;5114223;28;20207;-77
2023/05/25 13:30:13;;;;;;;0.00;0.00;;;;;;;;;;5113376;28;20208;-78
2023/05/25 13:32:43;;;;;;;0.00;0.00;;;;;;;;;;5112871;28;20181;-78
2023/05/25 13:35:17;;;;;;;0.00;0.00;;;;;;;;;;5113722;28;20224;-77
2023/05/25 13:37:46;;;;;;;0.00;0.00;;;;;;;;;;5114310;28;20265;-78
2023/05/25 13:40:15;;;;;;;0.00;0.00;;;;;;;;;;5108692;28;20202;-77
2023/05/25 13:42:44;;;;;;;0.00;0.00;;;;;;;;;;5109509;28;20209;-78
2023/05/25 13:45:12;;;;;;;0.00;0.00;;;;;;;;;;5114032;28;20221;-78
2023/05/25 13:47:43;;;;;;;0.00;0.00;;;;;;;;;;5109997;28;20605;-78
2023/05/25 13:50:12;;;;;;;0.00;0.00;;;;;;;;;;5093804;28;20643;-78
2023/05/25 13:52:40;;;;;;;0.00;0.00;;;;;;;;;;5094001;28;20611;-78
2023/05/25 13:55:09;;;;;;;0.00;0.00;;;;;;;;;;5093392;28;20229;-78
2023/05/25 13:57:37;;;;;;;0.00;0.00;;;;;;;;;;5093761;28;20206;-78
2023/05/25 14:00:07;;;;;;;0.00;0.00;;;;;;;;;;5093618;28;20206;-78
2023/05/25 14:02:35;;;;;;;0.00;0.00;;;;;;;;;;5093202;28;20218;-78
2023/05/25 14:05:06;;;;;;;0.00;0.00;;;;;;;;;;5093762;28;20248;-78
2023/05/25 14:07:35;;;;;;;0.00;0.00;;;;;;;;;;5093660;28;20197;-78
2023/05/25 14:10:03;;;;;;;0.00;0.00;;;;;;;;;;5093253;28;20288;-78
2023/05/25 14:12:33;;;;;;;0.00;0.00;;;;;;;;;;5092788;28;20246;-79
2023/05/25 14:15:01;;;;;;;0.00;0.00;;;;;;;;;;5094120;28;20229;-77
2023/05/25 14:17:30;;;;;;;0.00;0.00;;;;;;;;;;5093363;28;20210;-78
2023/05/25 14:19:58;;;;;;;0.00;0.00;;;;;;;;;;5096731;28;20249;-78
2023/05/25 14:22:29;;;;;;;0.00;0.00;;;;;;;;;;5097277;28;20219;-78
2023/05/25 14:24:57;;;;;;;0.00;0.00;;;;;;;;;;5097581;28;20218;-78
2023/05/25 14:27:26;;;;;;;0.00;0.00;;;;;;;;;;5097460;28;20217;-78
2023/05/25 14:29:54;;;;;;;0.00;0.00;;;;;;;;;;5097568;28;20205;-78
2023/05/25 14:32:23;;;;;;;0.00;0.00;;;;;;;;;;5097759;28;20202;-78
2023/05/25 14:34:51;;;;;;;0.00;0.00;;;;;;;;;;5097426;28;20226;-79
2023/05/25 14:37:20;;;;;;;0.00;0.00;;;;;;;;;;5096913;28;20210;-78
2023/05/25 14:39:49;;;;;;;0.00;0.00;;;;;;;;;;5096388;28;20209;-78
2023/05/25 14:42:18;;;;;;;0.00;0.00;;;;;;;;;;5113060;28;20606;-78
2023/05/25 14:44:47;;;;;;;0.00;0.00;;;;;;;;;;5103721;27;20225;-77
2023/05/25 14:47:15;;;;;;;0.00;0.00;;;;;;;;;;5100285;28;20201;-78
2023/05/25 14:49:44;;;;;;;0.00;0.00;;;;;;;;;;5097108;28;20202;-78
2023/05/25 14:52:12;;;;;;;0.00;0.00;;;;;;;;;;5106386;28;20229;-79
2023/05/25 14:54:43;;;;;;;0.00;0.00;;;;;;;;;;5115944;28;20233;-78
2023/05/25 14:57:15;;;;;;;0.00;0.00;;;;;;;;;;5102709;28;20206;-78
2023/05/25 14:59:43;;;;;;;0.00;0.00;;;;;;;;;;5098777;28;20186;-78